createdAt,value
2022-09-07T00:00:09.477Z,5.60
2022-09-07T00:02:36.309Z,6.00
2022-09-07T00:05:03.383Z,4.40
2022-09-07T00:07:30.943Z,6.70
2022-09-07T00:09:57.759Z,5.30
2022-09-07T00:12:24.526Z,6.20
2022-09-07T00:14:51.357Z,5.00
2022-09-07T00:17:18.427Z,6.20
2022-09-07T00:19:45.206Z,6.70
2022-09-07T00:22:12.083Z,5.20
2022-09-07T00:24:38.875Z,5.00
2022-09-07T00:27:05.842Z,7.60
2022-09-07T00:29:32.694Z,8.30
2022-09-07T00:31:59.507Z,6.60
2022-09-07T00:34:26.230Z,5.20
2022-09-07T00:36:53.070Z,6.50
2022-09-07T00:39:19.979Z,4.70
2022-09-07T00:41:46.872Z,5.80
2022-09-07T00:44:44.745Z,5.30
2022-09-07T00:47:36.883Z,3.50
2022-09-07T00:50:27.953Z,7.60
2022-09-07T00:53:08.921Z,5.20
2022-09-07T00:55:38.343Z,4.20
2022-09-07T00:58:06.260Z,6.00
2022-09-07T01:00:34.842Z,5.30
2022-09-07T01:03:04.140Z,6.00
2022-09-07T01:05:43.887Z,5.80
2022-09-07T01:08:13.455Z,6.80
2022-09-07T01:10:40.815Z,4.10
2022-09-07T01:13:07.961Z,4.10
2022-09-07T01:15:52.363Z,5.00
2022-09-07T01:18:29.092Z,4.10
2022-09-07T01:21:18.066Z,4.10
2022-09-07T01:23:59.969Z,6.50
2022-09-07T01:26:44.100Z,4.60
2022-09-07T01:29:23.441Z,6.40
2022-09-07T01:32:26.749Z,6.20
2022-09-07T01:34:54.965Z,7.90
2022-09-07T01:37:34.415Z,6.10
2022-09-07T01:40:10.256Z,4.50
2022-09-07T01:42:54.819Z,6.30
2022-09-07T01:45:27.083Z,5.40
2022-09-07T01:47:58.048Z,4.40
2022-09-07T01:50:38.145Z,7.50
2022-09-07T01:53:17.353Z,5.80
2022-09-07T01:55:57.425Z,4.00
2022-09-07T01:58:36.371Z,5.60
2022-09-07T02:01:48.725Z,5.20
2022-09-07T02:04:23.345Z,5.10
2022-09-07T02:06:58.591Z,5.60
2022-09-07T02:09:45.680Z,5.40
2022-09-07T02:12:39.553Z,5.60
2022-09-07T02:15:15.270Z,4.40
2022-09-07T02:17:54.596Z,5.60
2022-09-07T02:20:31.459Z,4.70
2022-09-07T02:23:02.796Z,6.80
2022-09-07T02:25:38.114Z,6.90
2022-09-07T02:28:10.379Z,6.00
2022-09-07T02:30:37.395Z,8.00
2022-09-07T02:33:05.430Z,6.20
2022-09-07T02:35:33.136Z,9.40
2022-09-07T02:38:04.529Z,9.20
2022-09-07T02:40:31.797Z,9.90
2022-09-07T02:43:02.012Z,10.90
2022-09-07T02:45:49.053Z,14.70
2022-09-07T02:48:29.535Z,9.40
2022-09-07T02:51:01.168Z,9.30
2022-09-07T02:53:36.607Z,6.80
2022-09-07T02:56:27.271Z,6.90
2022-09-07T02:59:13.097Z,7.20
2022-09-07T03:02:07.909Z,8.00
2022-09-07T03:04:55.735Z,6.10
2022-09-07T03:07:48.118Z,5.70
2022-09-07T03:10:17.408Z,8.50
2022-09-07T03:12:47.699Z,4.30
2022-09-07T03:15:24.343Z,6.70
2022-09-07T03:17:52.164Z,7.80
2022-09-07T03:20:20.979Z,5.10
2022-09-07T03:22:49.973Z,5.70
2022-09-07T03:25:17.582Z,5.10
2022-09-07T03:27:44.487Z,6.30
2022-09-07T03:30:13.366Z,6.60
2022-09-07T03:32:40.707Z,6.30
2022-09-07T03:35:08.843Z,6.50
2022-09-07T03:37:37.510Z,5.30
2022-09-07T03:40:07.805Z,5.70
2022-09-07T03:42:34.923Z,4.30
2022-09-07T03:45:02.164Z,4.30
2022-09-07T03:47:28.962Z,8.20
2022-09-07T03:49:55.771Z,5.10
2022-09-07T03:52:22.932Z,5.30
2022-09-07T03:54:49.731Z,6.30
2022-09-07T03:57:16.587Z,5.40
2022-09-07T03:59:43.414Z,6.60
2022-09-07T04:02:11.089Z,5.50
2022-09-07T04:04:37.839Z,7.20
2022-09-07T04:07:05.243Z,5.50
2022-09-07T04:09:32.136Z,7.20
2022-09-07T04:11:58.904Z,6.70
2022-09-07T04:14:25.847Z,5.80
2022-09-07T04:16:52.705Z,4.80
2022-09-07T04:19:19.539Z,5.90
2022-09-07T04:21:47.547Z,6.60
2022-09-07T04:24:16.649Z,6.20
2022-09-07T04:26:44.247Z,8.40
2022-09-07T04:29:12.657Z,6.30
2022-09-07T04:31:40.243Z,8.00
2022-09-07T04:34:07.720Z,7.30
2022-09-07T04:36:35.086Z,11.80
2022-09-07T04:39:04.813Z,6.10
2022-09-07T04:41:33.644Z,4.90
2022-09-07T04:44:02.565Z,9.20
2022-09-07T04:46:37.003Z,15.70
2022-09-07T04:49:11.274Z,6.90
2022-09-07T04:51:40.117Z,7.30
2022-09-07T04:54:07.177Z,7.40
2022-09-07T04:56:34.227Z,9.20
2022-09-07T04:59:02.128Z,5.50
2022-09-07T05:01:29.146Z,6.50
2022-09-07T05:03:56.135Z,12.00
2022-09-07T05:06:24.582Z,7.30
2022-09-07T05:08:53.747Z,8.20
2022-09-07T05:11:28.318Z,8.70
2022-09-07T05:14:01.555Z,9.80
2022-09-07T05:16:29.379Z,10.10
2022-09-07T05:18:59.236Z,11.30
2022-09-07T05:21:30.019Z,7.70
2022-09-07T05:23:58.934Z,9.60
2022-09-07T05:26:28.383Z,7.40
2022-09-07T05:31:42.875Z,12.60
2022-09-07T05:36:57.135Z,8.50
2022-09-07T05:39:24.322Z,8.70
2022-09-07T05:41:51.148Z,8.40
2022-09-07T05:47:04.851Z,12.50
2022-09-07T05:49:32.762Z,7.30
2022-09-07T05:51:59.569Z,8.90
2022-09-07T05:54:26.815Z,7.80
2022-09-07T05:56:53.665Z,8.30
2022-09-07T05:59:20.545Z,12.40
2022-09-07T06:01:47.527Z,12.80
2022-09-07T06:04:14.357Z,9.40
2022-09-07T06:06:41.229Z,13.40
2022-09-07T06:09:09.611Z,14.70
2022-09-07T06:11:36.840Z,11.80
2022-09-07T06:14:03.621Z,10.30
2022-09-07T06:16:33.501Z,13.30
2022-09-07T06:19:04.126Z,12.30
2022-09-07T06:21:30.871Z,13.10
2022-09-07T06:23:57.793Z,14.80
2022-09-07T06:26:24.567Z,15.10
2022-09-07T06:28:54.770Z,16.80
2022-09-07T06:31:25.722Z,12.40
2022-09-07T06:33:52.741Z,13.10
2022-09-07T06:36:27.523Z,15.80
2022-09-07T06:38:56.102Z,13.10
2022-09-07T06:44:12.749Z,10.70
2022-09-07T06:49:26.760Z,25.80
2022-09-07T06:51:53.629Z,26.30
2022-09-07T06:57:09.902Z,13.50
2022-09-07T06:59:37.917Z,20.10
2022-09-07T07:02:06.662Z,12.70
2022-09-07T07:04:39.535Z,16.90
2022-09-07T07:07:12.597Z,11.80
2022-09-07T07:09:41.645Z,14.80
2022-09-07T07:12:09.347Z,15.80
2022-09-07T07:14:39.591Z,13.40
2022-09-07T07:17:10.020Z,9.80
2022-09-07T07:19:36.878Z,13.20
2022-09-07T07:22:43.054Z,10.10
2022-09-07T07:24:50.481Z,11.30
2022-09-07T07:27:17.769Z,9.70
2022-09-07T07:29:45.503Z,12.10
2022-09-07T07:32:12.338Z,9.60
2022-09-07T07:34:39.123Z,13.40
2022-09-07T07:37:05.940Z,11.30
2022-09-07T07:42:21.242Z,15.50
2022-09-07T07:44:48.717Z,13.60
2022-09-07T07:47:15.640Z,13.70
2022-09-07T07:49:42.966Z,10.20
2022-09-07T07:54:56.382Z,13.90
2022-09-07T07:57:23.396Z,15.90
2022-09-07T07:59:50.207Z,11.40
2022-09-07T08:02:17.478Z,9.20
2022-09-07T08:04:44.971Z,14.50
2022-09-07T08:07:12.579Z,11.40
2022-09-07T08:09:41.417Z,12.10
2022-09-07T08:12:10.147Z,12.70
2022-09-07T08:14:41.395Z,11.40
2022-09-07T08:17:16.135Z,8.90
2022-09-07T08:19:43.497Z,12.50
2022-09-07T08:22:11.663Z,9.30
2022-09-07T08:24:38.537Z,11.00
2022-09-07T08:27:05.452Z,14.70
2022-09-07T08:29:34.498Z,14.50
2022-09-07T08:32:03.138Z,13.20
2022-09-07T08:34:29.979Z,11.00
2022-09-07T08:36:56.762Z,9.50
2022-09-07T08:39:23.519Z,9.00
2022-09-07T08:42:14.006Z,12.90
2022-09-07T08:45:03.153Z,13.00
2022-09-07T08:47:43.255Z,13.20
2022-09-07T08:50:31.793Z,8.80
2022-09-07T08:53:09.812Z,12.50
2022-09-07T08:56:02.303Z,9.30
2022-09-07T08:59:21.655Z,8.50
2022-09-07T09:05:16.208Z,13.50
2022-09-07T09:07:30.252Z,9.40
2022-09-07T09:10:35.999Z,8.70
2022-09-07T09:13:12.282Z,21.40
2022-09-07T09:16:05.080Z,10.20
2022-09-07T09:18:48.323Z,9.40
2022-09-07T09:21:18.972Z,11.80
2022-09-07T09:23:51.342Z,9.30
2022-09-07T09:26:18.252Z,6.80
2022-09-07T09:28:45.048Z,9.70
2022-09-07T09:31:21.051Z,11.70
2022-09-07T09:34:06.517Z,9.20
2022-09-07T09:36:46.263Z,10.30
2022-09-07T09:39:26.574Z,7.00
2022-09-07T09:41:56.294Z,8.60
2022-09-07T09:44:24.073Z,8.70
2022-09-07T09:49:41.941Z,7.90
2022-09-07T09:52:29.766Z,7.90
2022-09-07T09:55:03.370Z,7.80
2022-09-07T10:03:57.634Z,14.20
2022-09-07T10:06:27.074Z,10.40
2022-09-07T10:09:02.110Z,9.10
2022-09-07T10:12:08.658Z,7.40
2022-09-07T10:14:43.570Z,7.90
2022-09-07T10:17:35.947Z,6.70
2022-09-07T10:20:17.842Z,9.10
2022-09-07T10:22:52.035Z,14.00
2022-09-07T10:25:37.129Z,8.10
2022-09-07T10:28:10.328Z,8.80
2022-09-07T10:30:53.849Z,11.10
2022-09-07T10:33:29.005Z,8.80
2022-09-07T10:36:22.388Z,9.00
2022-09-07T10:39:00.194Z,10.50
2022-09-07T10:41:43.626Z,9.30
2022-09-07T10:44:23.296Z,7.30
2022-09-07T10:47:07.629Z,9.30
2022-09-07T10:53:39.724Z,11.00
2022-09-07T10:56:21.898Z,7.80
2022-09-07T10:59:05.966Z,9.30
2022-09-07T11:01:41.762Z,9.10
2022-09-07T11:04:20.591Z,8.50
2022-09-07T11:06:56.160Z,7.00
2022-09-07T11:09:38.663Z,11.20
2022-09-07T11:12:14.010Z,8.10
2022-09-07T11:14:50.723Z,8.00
2022-09-07T11:17:22.111Z,7.10
2022-09-07T11:20:02.271Z,7.80
2022-09-07T11:22:57.701Z,10.40
2022-09-07T11:25:29.904Z,6.90
2022-09-07T11:28:03.205Z,6.50
2022-09-07T11:30:46.909Z,9.30
2022-09-07T11:33:19.182Z,7.20
2022-09-07T11:36:12.387Z,8.90
2022-09-07T11:38:45.744Z,7.00
2022-09-07T11:41:21.248Z,6.80
2022-09-07T11:44:01.492Z,8.80
2022-09-07T11:46:43.462Z,10.60
2022-09-07T11:49:30.809Z,7.40
2022-09-07T11:52:05.727Z,8.60
2022-09-07T11:54:48.954Z,8.80
2022-09-07T11:57:15.600Z,9.50
2022-09-07T12:00:01.952Z,7.60
2022-09-07T12:02:59.749Z,8.10
2022-09-07T12:05:45.617Z,7.50
2022-09-07T12:08:15.249Z,8.10
2022-09-07T12:10:54.258Z,7.70
2022-09-07T12:13:50.901Z,5.40
2022-09-07T12:16:34.136Z,7.90
2022-09-07T12:19:25.489Z,6.50
2022-09-07T12:21:52.193Z,6.20
2022-09-07T12:24:39.456Z,5.50
2022-09-07T12:27:19.912Z,6.60
2022-09-07T12:30:12.868Z,8.60
2022-09-07T12:32:58.006Z,5.20
2022-09-07T12:35:37.409Z,7.30
2022-09-07T12:38:30.251Z,9.30
2022-09-07T12:40:59.988Z,7.20
2022-09-07T12:43:46.292Z,7.60
2022-09-07T12:46:40.691Z,9.30
2022-09-07T12:49:52.665Z,9.00
2022-09-07T12:52:31.474Z,7.90
2022-09-07T12:55:26.702Z,9.10
2022-09-07T12:57:54.033Z,8.20
2022-09-07T13:00:24.464Z,9.60
2022-09-07T13:09:41.408Z,7.40
2022-09-07T13:15:38.866Z,7.90
2022-09-07T13:18:06.828Z,7.20
2022-09-07T13:20:39.066Z,7.20
2022-09-07T13:23:09.624Z,7.80
2022-09-07T13:25:49.243Z,7.20
2022-09-07T13:28:54.937Z,8.70
2022-09-07T13:32:00.716Z,8.40
2022-09-07T13:34:36.586Z,7.00
2022-09-07T13:37:16.082Z,10.10
2022-09-07T13:39:47.065Z,7.90
2022-09-07T13:42:23.855Z,11.90
2022-09-07T13:44:56.388Z,7.20
2022-09-07T13:47:29.136Z,8.60
2022-09-07T13:50:08.064Z,8.90
2022-09-07T13:53:03.439Z,10.20
2022-09-07T13:55:53.970Z,9.40
2022-09-07T13:58:43.961Z,11.30
2022-09-07T14:01:13.946Z,6.10
2022-09-07T14:03:52.088Z,7.80
2022-09-07T14:06:21.568Z,11.10
2022-09-07T14:08:53.857Z,8.70
2022-09-07T14:11:45.840Z,12.90
2022-09-07T14:14:21.888Z,10.40
2022-09-07T14:17:04.909Z,7.80
2022-09-07T14:19:41.396Z,11.80
2022-09-07T14:22:19.181Z,8.60
2022-09-07T14:24:51.777Z,11.40
2022-09-07T14:27:35.054Z,11.60
2022-09-07T14:30:26.434Z,14.20
2022-09-07T14:33:00.804Z,16.10
2022-09-07T14:35:48.426Z,9.90
2022-09-07T14:41:20.847Z,14.20
2022-09-07T14:44:00.273Z,17.70
2022-09-07T14:46:29.854Z,12.90
2022-09-07T14:49:03.405Z,11.20
2022-09-07T14:51:36.629Z,9.60
2022-09-07T14:54:16.601Z,9.10
2022-09-07T14:56:43.346Z,11.50
2022-09-07T14:59:37.205Z,12.00
2022-09-07T15:02:19.252Z,14.30
2022-09-07T15:05:10.596Z,12.30
2022-09-07T15:07:41.771Z,18.00
2022-09-07T15:10:21.030Z,9.80
2022-09-07T15:12:55.345Z,11.80
2022-09-07T15:15:27.462Z,9.20
2022-09-07T15:18:00.844Z,9.80
2022-09-07T15:20:40.542Z,12.50
2022-09-07T15:23:18.502Z,11.70
2022-09-07T15:25:51.844Z,16.50
2022-09-07T15:34:15.779Z,14.10
2022-09-07T15:36:48.757Z,12.30
2022-09-07T15:39:17.349Z,14.20
2022-09-07T15:41:44.687Z,15.80
2022-09-07T15:44:13.729Z,15.00
2022-09-07T15:46:41.885Z,13.90
2022-09-07T15:49:09.675Z,13.00
2022-09-07T15:54:23.446Z,14.10
2022-09-07T15:59:38.034Z,11.60
2022-09-07T16:03:04.763Z,21.40
2022-09-07T16:04:51.909Z,15.20
2022-09-07T16:07:18.978Z,12.90
2022-09-07T16:09:45.932Z,13.50
2022-09-07T16:15:00.364Z,24.80
2022-09-07T16:17:35.623Z,13.20
2022-09-07T16:20:04.504Z,13.50
2022-09-07T16:25:19.492Z,13.50
2022-09-07T16:27:46.240Z,14.00
2022-09-07T16:30:16.538Z,17.70
2022-09-07T16:32:44.895Z,16.70
2022-09-07T16:35:12.091Z,22.20
2022-09-07T16:38:43.657Z,18.30
2022-09-07T16:40:25.570Z,14.70
2022-09-07T16:42:52.925Z,15.50
2022-09-07T16:48:07.067Z,18.10
2022-09-07T16:50:33.856Z,19.60
2022-09-07T16:53:00.611Z,18.40
2022-09-07T16:55:27.371Z,23.00
2022-09-07T17:00:42.784Z,20.90
2022-09-07T17:03:09.696Z,19.60
2022-09-07T17:05:41.281Z,18.40
2022-09-07T17:08:08.080Z,21.80
2022-09-07T17:10:34.885Z,18.20
2022-09-07T17:13:02.427Z,14.80
2022-09-07T17:15:34.147Z,14.90
2022-09-07T17:18:01.197Z,14.20
2022-09-07T17:20:28.274Z,15.80
2022-09-07T17:22:57.718Z,15.70
2022-09-07T17:25:24.397Z,16.60
2022-09-07T17:27:51.872Z,14.10
2022-09-07T17:30:20.807Z,12.10
2022-09-07T17:32:47.758Z,16.60
2022-09-07T17:35:14.965Z,13.30
2022-09-07T17:37:42.284Z,10.50
2022-09-07T17:40:09.687Z,14.60
2022-09-07T17:45:23.352Z,13.30
2022-09-07T17:47:50.590Z,14.20
2022-09-07T17:50:17.359Z,13.90
2022-09-07T17:52:45.887Z,16.60
2022-09-07T17:55:12.967Z,13.10
2022-09-07T17:57:39.806Z,12.50
2022-09-07T18:00:11.431Z,12.40
2022-09-07T18:02:38.658Z,11.60
2022-09-07T18:05:07.042Z,14.60
2022-09-07T18:07:35.255Z,12.00
2022-09-07T18:10:08.273Z,13.60
2022-09-07T18:12:35.362Z,15.10
2022-09-07T18:15:02.122Z,15.70
2022-09-07T18:17:28.974Z,14.00
2022-09-07T18:20:01.084Z,13.10
2022-09-07T18:22:30.273Z,18.10
2022-09-07T18:24:56.980Z,11.80
2022-09-07T18:27:25.688Z,13.20
2022-09-07T18:29:56.061Z,12.60
2022-09-07T18:32:25.503Z,16.20
2022-09-07T18:34:52.614Z,11.30
2022-09-07T18:37:32.419Z,12.60
2022-09-07T18:40:01.924Z,14.60
2022-09-07T18:42:31.954Z,13.50
2022-09-07T18:47:47.511Z,15.80
2022-09-07T18:50:14.471Z,16.10
2022-09-07T18:53:03.959Z,17.20
2022-09-07T18:55:27.919Z,13.70
2022-09-07T18:57:55.697Z,19.50
2022-09-07T19:00:23.266Z,13.60
2022-09-07T19:02:59.700Z,13.70
2022-09-07T19:08:13.622Z,13.40
2022-09-07T19:10:40.489Z,12.50
2022-09-07T19:13:07.390Z,12.10
2022-09-07T19:15:37.869Z,17.60
2022-09-07T19:18:05.978Z,15.00
2022-09-07T19:20:34.575Z,13.10
2022-09-07T19:23:01.469Z,15.00
2022-09-07T19:25:28.145Z,13.50
2022-09-07T19:27:54.818Z,18.30
2022-09-07T19:30:21.701Z,13.30
2022-09-07T19:32:48.361Z,16.20
2022-09-07T19:35:15.199Z,14.00
2022-09-07T19:37:42.016Z,13.80
2022-09-07T19:40:14.800Z,14.10
2022-09-07T19:42:45.065Z,10.40
2022-09-07T19:45:11.798Z,10.80
2022-09-07T19:47:38.628Z,12.80
2022-09-07T19:50:06.103Z,11.10
2022-09-07T19:52:32.844Z,13.70
2022-09-07T19:55:02.838Z,13.50
2022-09-07T19:57:30.363Z,16.50
2022-09-07T19:59:58.069Z,10.90
2022-09-07T20:02:25.174Z,13.40
2022-09-07T20:04:55.047Z,11.90
2022-09-07T20:07:21.873Z,14.50
2022-09-07T20:09:51.114Z,12.40
2022-09-07T20:12:21.125Z,11.60
2022-09-07T20:14:58.308Z,13.20
2022-09-07T20:17:25.096Z,12.10
2022-09-07T20:19:51.829Z,14.70
2022-09-07T20:22:18.559Z,11.60
2022-09-07T20:24:45.348Z,9.80
2022-09-07T20:27:12.069Z,13.10
2022-09-07T20:29:43.363Z,19.00
2022-09-07T20:32:10.334Z,9.80
2022-09-07T20:34:37.700Z,13.00
2022-09-07T20:37:05.025Z,15.70
2022-09-07T20:39:34.667Z,11.30
2022-09-07T20:42:05.460Z,13.90
2022-09-07T20:44:32.176Z,11.20
2022-09-07T20:46:58.938Z,11.00
2022-09-07T20:49:25.690Z,10.30
2022-09-07T20:51:52.449Z,7.20
2022-09-07T20:54:19.474Z,9.50
2022-09-07T20:56:46.180Z,11.40
2022-09-07T20:59:13.018Z,10.20
2022-09-07T21:01:39.781Z,10.30
2022-09-07T21:04:06.519Z,11.20
2022-09-07T21:06:33.438Z,10.70
2022-09-07T21:09:00.346Z,10.50
2022-09-07T21:11:33.743Z,11.10
2022-09-07T21:14:08.659Z,8.90
2022-09-07T21:16:36.369Z,9.20
2022-09-07T21:19:06.088Z,13.60
2022-09-07T21:21:51.137Z,7.20
2022-09-07T21:24:21.013Z,10.40
2022-09-07T21:26:49.589Z,11.40
2022-09-07T21:29:23.294Z,8.90
2022-09-07T21:31:52.448Z,12.70
2022-09-07T21:34:19.576Z,8.70
2022-09-07T21:36:46.465Z,8.40
2022-09-07T21:39:15.209Z,10.50
2022-09-07T21:41:43.525Z,10.30
2022-09-07T21:44:13.650Z,9.70
2022-09-07T21:46:41.551Z,9.50
2022-09-07T21:49:08.474Z,7.30
2022-09-07T21:51:35.386Z,10.80
2022-09-07T21:54:02.143Z,8.30
2022-09-07T21:56:30.486Z,8.40
2022-09-07T21:58:59.490Z,12.20
2022-09-07T22:01:28.479Z,8.70
2022-09-07T22:03:58.113Z,9.30
2022-09-07T22:06:27.588Z,9.30
2022-09-07T22:08:55.436Z,9.90
2022-09-07T22:11:24.076Z,8.50
2022-09-07T22:13:58.117Z,14.60
2022-09-07T22:16:25.391Z,8.80
2022-09-07T22:18:52.217Z,9.60
2022-09-07T22:21:22.440Z,11.20
2022-09-07T22:23:52.430Z,10.70
2022-09-07T22:26:21.636Z,9.00
2022-09-07T22:28:49.480Z,11.10
2022-09-07T22:31:22.802Z,9.80
2022-09-07T22:33:51.086Z,11.40
2022-09-07T22:36:23.276Z,9.00
2022-09-07T22:38:53.790Z,7.70
2022-09-07T22:41:23.555Z,10.20
2022-09-07T22:43:51.146Z,10.20
2022-09-07T22:46:20.297Z,8.20
2022-09-07T22:48:47.636Z,9.50
2022-09-07T22:51:15.023Z,8.90
2022-09-07T22:53:43.697Z,10.30
2022-09-07T22:56:12.994Z,12.60
2022-09-07T22:58:40.684Z,12.50
2022-09-07T23:01:07.496Z,9.50
2022-09-07T23:03:35.552Z,12.30
2022-09-07T23:06:03.528Z,10.70
2022-09-07T23:08:30.829Z,9.70
2022-09-07T23:11:07.851Z,14.20
2022-09-07T23:13:34.755Z,10.80
2022-09-07T23:16:06.378Z,13.40
2022-09-07T23:18:34.877Z,11.70
2022-09-07T23:21:02.461Z,13.40
2022-09-07T23:23:30.147Z,8.30
2022-09-07T23:25:57.142Z,10.90
2022-09-07T23:28:23.888Z,9.70
2022-09-07T23:30:51.273Z,8.50
2022-09-07T23:33:18.024Z,8.50
2022-09-07T23:35:57.702Z,10.70
2022-09-07T23:38:25.590Z,10.40
2022-09-07T23:40:52.982Z,13.40
2022-09-07T23:43:19.739Z,8.20
2022-09-07T23:45:46.541Z,10.70
2022-09-07T23:48:13.343Z,12.20
2022-09-07T23:50:40.157Z,8.10
2022-09-07T23:53:07.024Z,11.30
2022-09-07T23:55:33.822Z,7.40
2022-09-07T23:58:00.506Z,10.10
